Time;durP1;ratioP1;P1;durP2;ratioP2;P2;SDS_P1;SDS_P2;PMS_P1;PMS_P2;Temp;Humidity;BMP_temperature;BMP_pressure;BME280_temperature;BME280_humidity;BME280_pressure;Samples;Min_cycle;Max_cycle;Signal;HPM_P1;HPM_P2
2024/01/11 00:00:03;;;;;;;23.25;12.02;;;-0.90;98.70;;;;;;5069185;28;20020;-78
2024/01/11 00:02:29;;;;;;;27.27;13.00;;;-0.90;98.70;;;;;;5086681;28;20102;-78
2024/01/11 00:04:54;;;;;;;26.42;12.73;;;-0.90;98.80;;;;;;5086878;28;20056;-78
2024/01/11 00:07:20;;;;;;;27.10;13.07;;;-0.90;98.80;;;;;;5086115;28;20027;-78
2024/01/11 00:09:46;;;;;;;24.00;12.65;;;-0.90;98.80;;;;;;5068202;28;20302;-78
2024/01/11 00:12:11;;;;;;;22.10;10.93;;;-1.00;98.80;;;;;;5086166;28;20032;-78
2024/01/11 00:14:37;;;;;;;25.13;12.48;;;-1.00;98.80;;;;;;5086292;28;20389;-78
2024/01/11 00:17:03;;;;;;;25.13;12.63;;;-1.00;98.80;;;;;;5086247;28;20197;-78
2024/01/11 00:19:29;;;;;;;25.73;12.40;;;-1.00;98.80;;;;;;5067566;28;20028;-78
2024/01/11 00:21:54;;;;;;;23.42;12.50;;;-1.00;98.90;;;;;;5086206;28;20448;-78
2024/01/11 00:24:20;;;;;;;25.52;12.57;;;-1.00;98.90;;;;;;5086002;28;20020;-78
2024/01/11 00:26:46;;;;;;;23.17;11.30;;;-1.10;98.90;;;;;;5086165;28;20522;-77
2024/01/11 00:29:12;;;;;;;26.50;13.35;;;-1.10;98.90;;;;;;5085874;28;20485;-77
2024/01/11 00:31:38;;;;;;;22.75;11.48;;;-1.10;98.90;;;;;;5067941;28;20604;-78
2024/01/11 00:34:04;;;;;;;22.90;11.27;;;-1.10;98.90;;;;;;5085381;28;20085;-77
2024/01/11 00:36:30;;;;;;;27.50;11.90;;;-1.10;98.90;;;;;;5086264;28;20554;-77
2024/01/11 00:38:56;;;;;;;21.58;11.63;;;-1.20;98.90;;;;;;5085349;28;20057;-77
2024/01/11 00:41:21;;;;;;;24.73;12.07;;;-1.20;99.00;;;;;;5067789;28;20026;-77
2024/01/11 00:43:47;;;;;;;21.75;11.20;;;-1.10;99.00;;;;;;5085346;28;20043;-77
2024/01/11 00:46:13;;;;;;;27.30;12.18;;;-1.20;99.00;;;;;;5086197;28;20100;-77
2024/01/11 00:48:38;;;;;;;21.15;10.25;;;-1.20;99.00;;;;;;5085587;28;20128;-77
2024/01/11 00:51:05;;;;;;;22.48;10.23;;;-1.20;99.00;;;;;;5085856;28;20032;-77
2024/01/11 00:53:31;;;;;;;21.90;10.75;;;-1.20;99.10;;;;;;5085248;28;20044;-77
2024/01/11 00:56:00;;;;;;;20.90;10.05;;;-1.20;99.10;;;;;;5085982;28;20031;-77
2024/01/11 00:58:26;;;;;;;22.02;9.65;;;-1.30;99.10;;;;;;5071747;28;20020;-77
2024/01/11 01:00:53;;;;;;;25.00;10.57;;;-1.30;99.10;;;;;;5085523;28;20020;-77
2024/01/11 01:03:20;;;;;;;17.73;9.15;;;-1.30;99.10;;;;;;5085237;28;20020;-76
2024/01/11 01:05:48;;;;;;;21.00;10.00;;;-1.30;99.10;;;;;;5085794;28;20023;-76
2024/01/11 01:08:14;;;;;;;21.35;9.65;;;-1.30;99.10;;;;;;5085171;28;20031;-77
2024/01/11 01:10:40;;;;;;;21.00;10.18;;;-1.30;99.10;;;;;;5085758;28;20339;-77
2024/01/11 01:13:05;;;;;;;24.58;10.40;;;-1.30;99.10;;;;;;5083656;28;20036;-77
2024/01/11 01:15:31;;;;;;;18.95;9.27;;;-1.40;99.10;;;;;;5067142;28;20020;-77
2024/01/11 01:17:57;;;;;;;20.92;10.68;;;-1.30;99.10;;;;;;5084624;28;20428;-77
2024/01/11 01:20:23;;;;;;;21.05;9.93;;;-1.40;99.10;;;;;;5085749;28;20104;-77
2024/01/11 01:22:49;;;;;;;20.73;10.20;;;-1.40;99.10;;;;;;5084442;28;20447;-77
2024/01/11 01:25:15;;;;;;;20.92;9.93;;;-1.40;99.10;;;;;;5085695;28;20082;-76
2024/01/11 01:27:41;;;;;;;24.77;10.50;;;-1.40;99.20;;;;;;5084882;28;20024;-76
2024/01/11 01:30:08;;;;;;;21.08;10.02;;;-1.50;99.20;;;;;;5085418;28;20374;-77
2024/01/11 01:32:34;;;;;;;18.33;9.65;;;-1.50;99.20;;;;;;5084925;28;20374;-76
2024/01/11 01:35:00;;;;;;;21.05;10.23;;;-1.50;99.20;;;;;;5085222;28;20030;-76
2024/01/11 01:37:26;;;;;;;19.38;9.90;;;-1.50;99.20;;;;;;5085399;28;20032;-77
2024/01/11 01:39:51;;;;;;;18.15;10.13;;;-1.50;99.30;;;;;;5084845;28;20020;-77
2024/01/11 01:42:17;;;;;;;20.02;9.40;;;-1.50;99.30;;;;;;5067043;28;20060;-77
2024/01/11 01:44:42;;;;;;;19.02;10.07;;;-1.60;99.30;;;;;;5084286;28;20397;-77
2024/01/11 01:47:10;;;;;;;19.98;9.23;;;-1.60;99.30;;;;;;5085601;28;20031;-77
2024/01/11 01:49:38;;;;;;;23.52;11.15;;;-1.60;99.30;;;;;;5084852;28;20035;-77
2024/01/11 01:52:05;;;;;;;22.75;10.77;;;-1.60;99.40;;;;;;5084781;28;20090;-77
2024/01/11 01:54:32;;;;;;;22.00;9.98;;;-1.60;99.40;;;;;;5084477;28;20107;-77
2024/01/11 01:56:59;;;;;;;21.15;9.30;;;-1.60;99.40;;;;;;5066783;28;20051;-77
2024/01/11 01:59:25;;;;;;;21.08;10.15;;;-1.70;99.40;;;;;;5084450;28;20020;-77
2024/01/11 02:01:52;;;;;;;20.88;9.48;;;-1.70;99.50;;;;;;5085170;28;20377;-77
2024/01/11 02:04:19;;;;;;;23.88;10.82;;;-1.70;99.50;;;;;;5066308;28;20031;-77
2024/01/11 02:06:47;;;;;;;23.13;10.98;;;-1.70;99.50;;;;;;5066474;28;20035;-77
2024/01/11 02:09:13;;;;;;;19.65;10.40;;;-1.70;99.60;;;;;;5066448;28;20020;-77
2024/01/11 02:11:40;;;;;;;26.60;10.63;;;-1.80;99.60;;;;;;5085456;28;20043;-77
2024/01/11 02:14:07;;;;;;;24.15;10.73;;;-1.80;99.60;;;;;;5084365;28;20028;-77
2024/01/11 02:16:33;;;;;;;21.85;10.60;;;-1.80;99.70;;;;;;5085284;28;20039;-77
2024/01/11 02:18:58;;;;;;;27.30;11.52;;;-1.80;99.70;;;;;;5066437;28;20492;-77
2024/01/11 02:21:44;;;;;;;23.67;10.43;;;-1.80;99.70;;;;;;5085393;28;20012;-77
2024/01/11 02:24:10;;;;;;;21.23;10.63;;;-1.80;99.80;;;;;;5086614;28;20028;-77
2024/01/11 02:26:35;;;;;;;22.77;10.70;;;-1.80;99.80;;;;;;5088535;28;20047;-76
2024/01/11 02:29:01;;;;;;;19.95;10.55;;;-1.90;99.80;;;;;;5088068;28;20074;-77
2024/01/11 02:31:27;;;;;;;22.00;10.45;;;-1.80;99.80;;;;;;5070174;28;20880;-77
2024/01/11 02:33:54;;;;;;;20.83;10.15;;;-1.90;99.90;;;;;;5087593;28;20056;-77
2024/01/11 02:36:24;;;;;;;25.52;10.88;;;-1.90;99.90;;;;;;5088683;28;20077;-77
2024/01/11 02:38:51;;;;;;;20.85;11.30;;;-1.90;99.90;;;;;;5087686;28;20028;-77
2024/01/11 02:41:18;;;;;;;21.27;10.18;;;-1.90;99.90;;;;;;5088483;28;20069;-79
2024/01/11 02:43:48;;;;;;;23.25;10.40;;;-1.90;99.90;;;;;;5087753;28;20631;-79
2024/01/11 02:46:17;;;;;;;19.05;9.88;;;-2.00;99.90;;;;;;5088375;28;20016;-79
2024/01/11 02:48:43;;;;;;;20.73;10.98;;;-2.00;99.90;;;;;;5087732;28;20031;-79
2024/01/11 02:51:08;;;;;;;20.92;10.45;;;-2.00;99.90;;;;;;5069984;28;20039;-79
2024/01/11 02:53:34;;;;;;;21.80;10.52;;;-2.00;99.90;;;;;;5087887;28;20043;-79
2024/01/11 02:56:03;;;;;;;20.75;9.95;;;-2.00;99.90;;;;;;5069672;28;20132;-79
2024/01/11 02:58:29;;;;;;;19.50;9.90;;;-2.10;99.90;;;;;;5087519;28;20393;-80
2024/01/11 03:00:54;;;;;;;20.10;9.68;;;-2.10;99.90;;;;;;5087949;28;20084;-79
2024/01/11 03:03:20;;;;;;;22.65;10.35;;;-2.10;99.90;;;;;;5068963;28;20016;-79
2024/01/11 03:05:45;;;;;;;19.10;9.65;;;-2.20;99.90;;;;;;5087517;28;20019;-79
2024/01/11 03:08:11;;;;;;;19.50;9.82;;;-2.20;99.90;;;;;;5087237;28;20044;-79
2024/01/11 03:10:40;;;;;;;22.38;10.43;;;-2.20;99.90;;;;;;5087817;28;20020;-80
2024/01/11 03:13:08;;;;;;;20.30;10.27;;;-2.20;99.90;;;;;;5087280;28;20141;-80
2024/01/11 03:15:34;;;;;;;21.23;11.05;;;-2.20;99.90;;;;;;5069685;28;20028;-80
2024/01/11 03:18:00;;;;;;;19.05;10.23;;;-2.30;99.90;;;;;;5068773;28;20023;-80
2024/01/11 03:20:25;;;;;;;20.35;10.35;;;-2.20;99.90;;;;;;5087621;28;20390;-80
2024/01/11 03:22:52;;;;;;;21.13;10.70;;;-2.20;99.90;;;;;;5087038;28;20024;-80
2024/01/11 03:25:18;;;;;;;20.45;9.50;;;-2.30;99.90;;;;;;5069072;28;20028;-80
2024/01/11 03:27:44;;;;;;;19.65;10.18;;;-2.30;99.90;;;;;;5087392;28;20035;-80
2024/01/11 03:30:10;;;;;;;23.05;10.60;;;-2.30;99.90;;;;;;5087241;28;20026;-80
2024/01/11 03:32:38;;;;;;;20.83;10.50;;;-2.30;99.90;;;;;;5087482;28;20384;-79
2024/01/11 03:35:08;;;;;;;17.58;9.23;;;-2.30;99.90;;;;;;5085959;28;20313;-80
2024/01/11 03:37:34;;;;;;;21.17;9.88;;;-2.40;99.90;;;;;;5087157;28;20603;-80
2024/01/11 03:40:01;;;;;;;18.90;9.50;;;-2.40;99.90;;;;;;5068278;28;20012;-80
2024/01/11 03:42:26;;;;;;;22.67;10.25;;;-2.40;99.90;;;;;;5087142;28;20043;-80
2024/01/11 03:44:52;;;;;;;20.20;10.63;;;-2.40;99.90;;;;;;5086411;28;20062;-80
2024/01/11 03:47:18;;;;;;;23.73;10.65;;;-2.40;99.90;;;;;;5087456;28;20509;-80
2024/01/11 03:49:44;;;;;;;21.08;10.27;;;-2.40;99.90;;;;;;5068099;28;20115;-81
2024/01/11 03:52:10;;;;;;;19.27;10.40;;;-2.40;99.90;;;;;;5068861;28;20038;-80
2024/01/11 03:54:35;;;;;;;22.35;9.98;;;-2.40;99.90;;;;;;5086777;28;20463;-80
2024/01/11 03:57:03;;;;;;;24.38;11.05;;;-2.40;99.90;;;;;;5068857;28;20027;-80
2024/01/11 03:59:28;;;;;;;20.27;10.52;;;-2.40;99.90;;;;;;5086532;28;20048;-80
2024/01/11 04:01:55;;;;;;;21.50;11.07;;;-2.50;99.90;;;;;;5086640;28;20051;-81
2024/01/11 04:04:20;;;;;;;24.10;11.02;;;-2.50;99.90;;;;;;5086258;28;20043;-81
2024/01/11 04:06:46;;;;;;;23.77;11.20;;;-2.50;99.90;;;;;;5068184;28;20080;-81
2024/01/11 04:09:12;;;;;;;19.58;10.38;;;-2.50;99.90;;;;;;5086117;28;20081;-81
2024/01/11 04:11:37;;;;;;;20.77;10.07;;;-2.50;99.90;;;;;;5086639;28;20107;-81
2024/01/11 04:14:03;;;;;;;23.15;10.90;;;-2.50;99.90;;;;;;5085767;28;20028;-81
2024/01/11 04:16:29;;;;;;;23.15;10.98;;;-2.60;99.90;;;;;;5086480;28;20029;-81
2024/01/11 04:18:54;;;;;;;21.23;10.35;;;-2.60;99.90;;;;;;5085906;28;20016;-81
2024/01/11 04:21:30;;;;;;;21.75;10.48;;;-2.60;99.90;;;;;;5086574;28;20061;-81
2024/01/11 04:23:56;;;;;;;24.92;11.95;;;-2.60;99.90;;;;;;5085505;28;20039;-81
2024/01/11 04:26:22;;;;;;;24.08;11.20;;;-2.60;99.90;;;;;;5086777;28;20102;-81
2024/01/11 04:28:49;;;;;;;20.48;10.95;;;-2.60;99.90;;;;;;5086455;28;20126;-81
2024/01/11 04:31:18;;;;;;;22.00;11.05;;;-2.60;99.90;;;;;;5089449;28;20051;-81
2024/01/11 04:33:45;;;;;;;25.58;11.45;;;-2.60;99.90;;;;;;5067940;28;20122;-81
2024/01/11 04:36:11;;;;;;;20.73;11.13;;;-2.60;99.90;;;;;;5088420;28;20165;-81
2024/01/11 04:38:37;;;;;;;23.67;10.93;;;-2.70;99.90;;;;;;5087568;28;20090;-81
2024/01/11 04:41:08;;;;;;;20.73;10.20;;;-2.70;99.90;;;;;;5086210;28;20016;-81
2024/01/11 04:43:35;;;;;;;20.67;10.32;;;-2.70;99.90;;;;;;5085824;28;20028;-81
2024/01/11 04:46:00;;;;;;;23.60;11.18;;;-2.70;99.90;;;;;;5085964;28;20043;-81
2024/01/11 04:48:26;;;;;;;18.58;9.95;;;-2.70;99.90;;;;;;5084739;28;20477;-81
2024/01/11 04:50:52;;;;;;;19.30;10.07;;;-2.70;99.90;;;;;;5085831;28;20032;-81
2024/01/11 04:53:18;;;;;;;22.63;10.65;;;-2.70;99.90;;;;;;5085168;28;20122;-81
2024/01/11 04:55:43;;;;;;;21.95;10.60;;;-2.70;99.90;;;;;;5067851;28;20035;-81
2024/01/11 04:58:09;;;;;;;23.35;11.32;;;-2.70;99.90;;;;;;5085654;28;20020;-81
2024/01/11 05:00:35;;;;;;;25.17;11.00;;;-2.70;99.90;;;;;;5085810;28;20047;-81
2024/01/11 05:03:00;;;;;;;22.80;11.30;;;-2.70;99.90;;;;;;5085461;28;20016;-80
2024/01/11 05:05:26;;;;;;;22.52;10.93;;;-2.80;99.90;;;;;;5085558;28;20503;-81
2024/01/11 05:07:52;;;;;;;21.75;11.05;;;-2.80;99.90;;;;;;5085590;28;20046;-81
2024/01/11 05:10:17;;;;;;;23.08;11.65;;;-2.80;99.90;;;;;;5085121;28;20129;-81
2024/01/11 05:12:43;;;;;;;24.58;11.35;;;-2.80;99.90;;;;;;5085274;28;20028;-81
2024/01/11 05:15:09;;;;;;;21.35;11.27;;;-2.80;99.90;;;;;;5085091;28;20050;-81
2024/01/11 05:17:34;;;;;;;23.85;11.43;;;-2.80;99.90;;;;;;5071685;28;20012;-81
2024/01/11 05:20:00;;;;;;;23.05;11.85;;;-2.80;99.90;;;;;;5066588;28;20051;-81
2024/01/11 05:22:26;;;;;;;21.40;11.02;;;-2.80;99.90;;;;;;5085338;28;20099;-81
2024/01/11 05:24:51;;;;;;;22.58;11.80;;;-2.80;99.90;;;;;;5085030;28;20028;-81
2024/01/11 05:27:17;;;;;;;26.08;12.68;;;-2.80;99.90;;;;;;5085567;28;20026;-81
2024/01/11 05:29:43;;;;;;;23.02;11.55;;;-2.90;99.90;;;;;;5084767;28;20043;-81
2024/01/11 05:32:09;;;;;;;27.58;12.65;;;-2.90;99.90;;;;;;5085647;28;20427;-81
2024/01/11 05:34:34;;;;;;;21.52;11.25;;;-2.90;99.90;;;;;;5066328;28;20028;-81
2024/01/11 05:37:00;;;;;;;23.23;11.65;;;-2.90;99.90;;;;;;5085555;28;20020;-82
2024/01/11 05:39:26;;;;;;;22.55;11.25;;;-2.90;99.90;;;;;;5085077;28;20414;-81
2024/01/11 05:41:52;;;;;;;25.73;12.40;;;-2.90;99.90;;;;;;5085377;28;20511;-82
2024/01/11 05:44:17;;;;;;;26.55;12.45;;;-2.90;99.90;;;;;;5083036;28;20054;-81
2024/01/11 05:46:44;;;;;;;27.20;12.65;;;-2.90;99.90;;;;;;5085701;28;20475;-81
2024/01/11 05:49:09;;;;;;;26.40;13.18;;;-2.90;99.90;;;;;;5083641;28;20028;-82
2024/01/11 05:51:35;;;;;;;23.67;11.52;;;-3.00;99.90;;;;;;5084981;28;20032;-82
2024/01/11 05:54:01;;;;;;;24.13;12.25;;;-3.00;99.90;;;;;;5084676;28;20085;-82
2024/01/11 05:56:26;;;;;;;23.98;12.50;;;-3.00;99.90;;;;;;5067185;28;20305;-82
2024/01/11 05:58:52;;;;;;;23.10;12.10;;;-3.00;99.90;;;;;;5086493;28;20020;-82
2024/01/11 06:01:18;;;;;;;29.75;13.00;;;-3.00;99.90;;;;;;5071230;28;20020;-82
2024/01/11 06:03:43;;;;;;;28.38;13.27;;;-3.00;99.90;;;;;;5088494;28;20032;-82
2024/01/11 06:06:09;;;;;;;26.60;12.48;;;-3.10;99.90;;;;;;5089368;28;20485;-83
2024/01/11 06:08:35;;;;;;;27.45;12.82;;;-3.10;99.90;;;;;;5088647;28;20068;-83
2024/01/11 06:11:00;;;;;;;28.58;12.63;;;-3.10;99.90;;;;;;5089007;28;20081;-83
2024/01/11 06:13:26;;;;;;;25.67;12.63;;;-3.10;99.90;;;;;;5088614;28;20028;-83
2024/01/11 06:15:52;;;;;;;28.10;13.23;;;-3.10;99.90;;;;;;5088417;28;20065;-83
2024/01/11 06:18:17;;;;;;;24.95;13.10;;;-3.10;99.90;;;;;;5070817;28;20052;-83
2024/01/11 06:20:43;;;;;;;26.92;13.68;;;-3.10;99.90;;;;;;5088052;28;20523;-83
2024/01/11 06:23:09;;;;;;;28.92;13.40;;;-3.20;99.90;;;;;;5089539;28;20027;-83
2024/01/11 06:25:35;;;;;;;25.73;12.95;;;-3.10;99.90;;;;;;5070091;28;20469;-83
2024/01/11 06:28:02;;;;;;;25.70;12.57;;;-3.20;99.90;;;;;;5089071;28;20034;-83
2024/01/11 06:30:28;;;;;;;23.70;12.85;;;-3.20;99.90;;;;;;5088315;28;20028;-83
2024/01/11 06:32:53;;;;;;;24.17;12.45;;;-3.20;99.90;;;;;;5074307;28;20024;-83
2024/01/11 06:35:19;;;;;;;24.48;13.10;;;-3.20;99.90;;;;;;5070049;28;20022;-84
2024/01/11 06:37:45;;;;;;;26.48;12.23;;;-3.20;99.90;;;;;;5070272;28;20067;-84
2024/01/11 06:40:11;;;;;;;25.98;13.38;;;-3.20;99.90;;;;;;5070044;28;20443;-83
2024/01/11 06:42:36;;;;;;;25.65;13.07;;;-3.20;99.90;;;;;;5088887;28;20027;-83
2024/01/11 06:45:03;;;;;;;26.95;13.57;;;-3.20;99.90;;;;;;5070174;28;20020;-83
2024/01/11 06:47:29;;;;;;;26.73;13.13;;;-3.20;99.90;;;;;;5090020;28;20020;-83
2024/01/11 06:49:54;;;;;;;25.38;12.57;;;-3.20;99.90;;;;;;5091416;28;20024;-83
2024/01/11 06:52:20;;;;;;;25.75;13.68;;;-3.20;99.90;;;;;;5073771;28;20047;-83
2024/01/11 06:54:45;;;;;;;32.25;14.50;;;-3.20;99.90;;;;;;5091179;28;20055;-83
2024/01/11 06:57:11;;;;;;;27.33;14.18;;;-3.20;99.90;;;;;;5089587;28;20384;-82
2024/01/11 06:59:37;;;;;;;31.63;15.73;;;-3.20;99.90;;;;;;5087713;28;20054;-83
2024/01/11 07:02:03;;;;;;;30.92;14.15;;;-3.20;99.90;;;;;;5087213;28;20073;-83
2024/01/11 07:04:29;;;;;;;25.67;13.10;;;-3.20;99.90;;;;;;5087389;28;20059;-83
2024/01/11 07:06:55;;;;;;;27.92;14.40;;;-3.20;99.90;;;;;;5087394;28;20055;-82
2024/01/11 07:09:20;;;;;;;28.88;14.32;;;-3.20;99.90;;;;;;5087438;28;20500;-82
2024/01/11 07:11:46;;;;;;;30.05;15.13;;;-3.30;99.90;;;;;;5087488;28;20019;-82
2024/01/11 07:14:12;;;;;;;27.35;14.05;;;-3.30;99.90;;;;;;5087836;28;20107;-83
2024/01/11 07:16:37;;;;;;;31.40;15.90;;;-3.30;99.90;;;;;;5088552;28;20075;-83
2024/01/11 07:19:03;;;;;;;26.63;13.98;;;-3.30;99.90;;;;;;5087100;28;20024;-83
2024/01/11 07:21:31;;;;;;;27.42;15.13;;;-3.30;99.90;;;;;;5087324;28;20039;-83
2024/01/11 07:23:58;;;;;;;28.55;15.48;;;-3.30;99.90;;;;;;5077570;28;20081;-83
2024/01/11 07:26:24;;;;;;;30.50;14.75;;;-3.30;99.90;;;;;;5087939;28;20139;-81
2024/01/11 07:28:50;;;;;;;31.98;14.30;;;-3.30;99.90;;;;;;5067806;28;20032;-82
2024/01/11 07:31:16;;;;;;;30.15;15.43;;;-3.30;99.90;;;;;;5087986;28;20084;-82
2024/01/11 07:33:42;;;;;;;33.60;15.82;;;-3.30;99.90;;;;;;5068728;28;20032;-82
2024/01/11 07:36:09;;;;;;;30.58;15.25;;;-3.30;99.90;;;;;;5068962;28;20082;-82
2024/01/11 07:38:35;;;;;;;29.65;15.10;;;-3.30;99.90;;;;;;5087535;28;20105;-82
2024/01/11 07:41:01;;;;;;;30.80;15.25;;;-3.30;99.90;;;;;;5080837;28;20036;-82
2024/01/11 07:43:28;;;;;;;28.70;14.55;;;-3.30;99.90;;;;;;5081930;28;20018;-82
2024/01/11 07:45:56;;;;;;;31.05;15.43;;;-3.40;99.90;;;;;;5066322;28;20058;-82
2024/01/11 07:48:22;;;;;;;35.78;16.17;;;-3.30;99.90;;;;;;5085500;28;20024;-82
2024/01/11 07:50:48;;;;;;;33.75;16.38;;;-3.30;99.90;;;;;;5067838;28;20456;-82
2024/01/11 07:53:14;;;;;;;31.40;16.65;;;-3.30;99.90;;;;;;5067336;28;20039;-82
2024/01/11 07:55:40;;;;;;;31.45;15.63;;;-3.30;99.90;;;;;;5085134;28;20199;-82
2024/01/11 07:58:07;;;;;;;29.17;14.68;;;-3.30;99.90;;;;;;5066550;28;20609;-83
2024/01/11 08:00:33;;;;;;;29.10;15.35;;;-3.30;99.90;;;;;;5066536;28;20024;-82
2024/01/11 08:02:59;;;;;;;30.10;14.98;;;-3.30;99.90;;;;;;5085171;28;20058;-83
2024/01/11 08:05:25;;;;;;;30.27;15.32;;;-3.20;99.90;;;;;;5084741;28;20028;-83
2024/01/11 08:07:51;;;;;;;32.65;15.48;;;-3.30;99.90;;;;;;5084966;28;20093;-82
2024/01/11 08:10:17;;;;;;;33.17;16.17;;;-3.30;99.90;;;;;;5084886;28;20028;-83
2024/01/11 08:12:42;;;;;;;32.67;15.48;;;-3.30;99.90;;;;;;5066751;28;20020;-83
2024/01/11 08:15:12;;;;;;;31.42;15.95;;;-3.30;99.90;;;;;;5084797;28;20084;-83
2024/01/11 08:17:39;;;;;;;32.28;15.90;;;-3.30;99.90;;;;;;5086150;28;20074;-84
2024/01/11 08:20:08;;;;;;;29.70;15.85;;;-3.20;99.90;;;;;;5086039;28;20024;-84
2024/01/11 08:22:36;;;;;;;29.75;14.95;;;-3.20;99.90;;;;;;5067080;28;20103;-83
2024/01/11 08:25:04;;;;;;;32.60;15.20;;;-3.20;99.90;;;;;;5085669;28;20051;-84
2024/01/11 08:27:31;;;;;;;31.15;15.80;;;-3.20;99.90;;;;;;5087020;28;20028;-84
2024/01/11 08:30:04;;;;;;;29.88;15.18;;;-3.10;99.90;;;;;;5085850;28;20031;-84
2024/01/11 08:32:30;;;;;;;28.98;15.18;;;-3.10;99.90;;;;;;5068458;28;20031;-84
2024/01/11 08:34:57;;;;;;;32.45;16.33;;;-3.10;99.90;;;;;;5085790;28;20031;-84
2024/01/11 08:37:23;;;;;;;30.05;14.65;;;-3.10;99.90;;;;;;5068060;28;20024;-84
2024/01/11 08:39:50;;;;;;;32.70;14.80;;;-3.00;99.90;;;;;;5079631;28;20008;-83
2024/01/11 08:42:15;;;;;;;27.27;14.77;;;-3.00;99.90;;;;;;5067816;28;20020;-84
2024/01/11 08:44:44;;;;;;;28.35;14.82;;;-3.00;99.90;;;;;;5086858;28;20031;-83
2024/01/11 08:47:10;;;;;;;28.48;14.65;;;-2.90;99.90;;;;;;5087286;28;20084;-83
2024/01/11 08:49:39;;;;;;;33.55;16.45;;;-2.90;99.90;;;;;;5067411;28;20488;-83
2024/01/11 08:52:06;;;;;;;27.98;14.55;;;-2.80;99.90;;;;;;5067429;28;20078;-84
2024/01/11 08:54:34;;;;;;;28.88;14.63;;;-2.80;99.90;;;;;;5087836;28;20027;-85
2024/01/11 08:57:01;;;;;;;28.27;15.50;;;-2.70;99.90;;;;;;5087405;28;20016;-85
2024/01/11 08:59:27;;;;;;;32.70;15.75;;;-2.70;99.90;;;;;;5086259;28;20067;-81
2024/01/11 09:01:53;;;;;;;34.70;16.23;;;-2.60;99.90;;;;;;5086081;28;20048;-83
2024/01/11 09:04:18;;;;;;;33.97;16.38;;;-2.60;99.90;;;;;;5092295;28;20031;-85
2024/01/11 09:06:44;;;;;;;28.80;15.38;;;-2.50;99.90;;;;;;5085266;28;20028;-82
2024/01/11 09:09:13;;;;;;;32.35;15.40;;;-2.50;99.90;;;;;;5081333;28;20115;-80
2024/01/11 09:11:40;;;;;;;35.63;17.10;;;-2.40;99.90;;;;;;5087863;28;20015;-81
2024/01/11 09:14:07;;;;;;;33.30;15.90;;;-2.40;99.90;;;;;;5085451;28;20012;-80
2024/01/11 09:16:33;;;;;;;33.05;15.63;;;-2.30;99.90;;;;;;5062669;28;20024;-85
2024/01/11 09:19:00;;;;;;;32.00;15.90;;;-2.30;99.90;;;;;;5085532;28;20418;-83
2024/01/11 09:21:26;;;;;;;28.98;15.10;;;-2.20;99.90;;;;;;5066946;28;20500;-83
2024/01/11 09:23:52;;;;;;;33.95;15.98;;;-2.10;99.90;;;;;;5081496;28;20111;-79
2024/01/11 09:26:17;;;;;;;33.05;16.83;;;-2.10;99.90;;;;;;5083033;28;20039;-87
2024/01/11 09:28:43;;;;;;;31.45;16.38;;;-2.00;99.90;;;;;;5068947;28;20032;-86
2024/01/11 09:31:09;;;;;;;30.70;15.57;;;-1.90;99.90;;;;;;5067933;28;20028;-86
2024/01/11 09:33:34;;;;;;;34.28;15.75;;;-1.90;99.90;;;;;;5088857;28;20028;-82
2024/01/11 09:36:00;;;;;;;36.38;16.73;;;-1.80;99.90;;;;;;5090647;28;20016;-87
2024/01/11 09:38:26;;;;;;;37.25;18.17;;;-1.70;99.90;;;;;;5090121;28;20020;-85
2024/01/11 09:41:13;;;;;;;34.42;17.10;;;-1.70;99.90;;;;;;5089029;28;20016;-83
2024/01/11 09:43:41;;;;;;;31.85;16.55;;;-1.60;99.90;;;;;;5089755;28;20322;-83
2024/01/11 09:46:09;;;;;;;32.13;16.27;;;-1.60;99.90;;;;;;5089285;28;20429;-84
2024/01/11 09:48:37;;;;;;;32.33;16.15;;;-1.50;99.90;;;;;;5089849;28;20035;-84
2024/01/11 09:51:05;;;;;;;32.33;16.63;;;-1.40;99.90;;;;;;5084853;28;20032;-80
2024/01/11 09:53:33;;;;;;;32.10;15.60;;;-1.40;99.90;;;;;;5087634;28;20035;-81
2024/01/11 09:55:59;;;;;;;32.08;15.73;;;-1.30;99.90;;;;;;5088819;28;20061;-83
2024/01/11 09:58:25;;;;;;;27.33;15.23;;;-1.30;99.90;;;;;;5090036;28;20016;-84
2024/01/11 10:00:56;;;;;;;31.75;17.27;;;-1.20;99.90;;;;;;5088359;28;20101;-83
2024/01/11 10:03:24;;;;;;;31.80;15.48;;;-1.10;99.90;;;;;;5089743;28;20488;-83
2024/01/11 10:05:51;;;;;;;29.65;15.90;;;-1.10;99.90;;;;;;5069979;28;20015;-79
2024/01/11 10:08:21;;;;;;;33.22;16.52;;;-1.00;99.90;;;;;;5089252;28;20031;-84
2024/01/11 10:10:46;;;;;;;35.53;17.60;;;-1.00;99.90;;;;;;5088440;28;20016;-81
2024/01/11 10:13:12;;;;;;;30.48;16.45;;;-0.90;99.90;;;;;;5078849;28;20285;-82
2024/01/11 10:15:38;;;;;;;33.55;17.33;;;-0.90;99.90;;;;;;5087978;28;20111;-80
2024/01/11 10:18:04;;;;;;;31.67;15.82;;;-0.80;99.90;;;;;;5067099;28;20134;-87
2024/01/11 10:20:37;;;;;;;29.45;16.08;;;-0.80;99.90;;;;;;5087330;28;20032;-87
2024/01/11 10:23:03;;;;;;;32.00;16.88;;;-0.70;99.90;;;;;;5071908;28;20101;-85
2024/01/11 10:25:29;;;;;;;31.60;15.98;;;-0.60;99.90;;;;;;5090495;28;20051;-90
2024/01/11 10:27:55;;;;;;;33.08;16.13;;;-0.60;99.90;;;;;;5072210;28;20024;-88
2024/01/11 10:30:23;;;;;;;29.70;16.13;;;-0.50;99.90;;;;;;5089416;28;20393;-89
2024/01/11 10:32:49;;;;;;;31.65;16.50;;;-0.50;99.90;;;;;;5089629;28;20024;-86
2024/01/11 10:35:17;;;;;;;30.45;14.32;;;-0.40;99.90;;;;;;5089424;28;20047;-86
2024/01/11 10:37:44;;;;;;;28.55;15.13;;;-0.30;99.90;;;;;;5089025;28;20016;-84
2024/01/11 10:40:12;;;;;;;31.30;17.20;;;-0.30;99.90;;;;;;5089612;28;20047;-90
2024/01/11 10:42:45;;;;;;;31.73;15.85;;;-0.20;99.90;;;;;;5090039;28;20012;-86
2024/01/11 10:45:17;;;;;;;28.35;14.80;;;-0.20;99.90;;;;;;5088034;28;20081;-84
2024/01/11 10:48:01;;;;;;;34.60;17.27;;;-0.10;99.90;;;;;;5081677;28;20028;-83
2024/01/11 10:50:30;;;;;;;31.00;15.45;;;0.00;99.90;;;;;;5088456;28;20077;-85
2024/01/11 10:53:04;;;;;;;28.23;15.10;;;0.00;99.90;;;;;;5088757;28;20557;-80
2024/01/11 10:55:34;;;;;;;23.85;13.27;;;0.10;99.90;;;;;;5087632;28;20036;-82
2024/01/11 10:58:02;;;;;;;26.65;14.30;;;0.10;99.90;;;;;;5069795;28;20012;-83
2024/01/11 11:00:29;;;;;;;27.45;13.93;;;0.20;99.90;;;;;;5084331;28;20117;-81
2024/01/11 11:02:56;;;;;;;25.58;13.70;;;0.30;99.90;;;;;;5069350;28;20023;-81
2024/01/11 11:05:24;;;;;;;23.55;12.38;;;0.30;99.90;;;;;;5069016;28;20081;-79
2024/01/11 11:07:51;;;;;;;22.30;12.52;;;0.40;99.90;;;;;;5069168;28;20020;-80
2024/01/11 11:10:21;;;;;;;20.95;11.57;;;0.40;99.90;;;;;;5087162;28;20024;-79
2024/01/11 11:12:48;;;;;;;18.95;9.70;;;0.50;99.90;;;;;;5087307;28;20508;-84
2024/01/11 11:15:14;;;;;;;18.13;8.85;;;0.50;99.90;;;;;;5087459;28;20114;-84
2024/01/11 11:17:43;;;;;;;18.17;8.70;;;0.60;99.90;;;;;;5088985;28;20177;-82
2024/01/11 11:20:13;;;;;;;17.75;8.93;;;0.60;99.90;;;;;;5076597;28;20081;-78
2024/01/11 11:22:45;;;;;;;20.13;9.05;;;0.60;99.90;;;;;;5094166;28;20152;-80
2024/01/11 11:25:23;;;;;;;18.38;8.70;;;0.60;99.90;;;;;;5078506;28;20046;-80
2024/01/11 11:27:49;;;;;;;17.77;8.65;;;0.50;99.90;;;;;;5059116;28;20043;-77
2024/01/11 11:30:14;;;;;;;17.95;7.78;;;0.50;99.90;;;;;;5084699;28;20020;-79
2024/01/11 11:32:44;;;;;;;20.38;9.20;;;0.40;99.90;;;;;;5087557;28;20031;-79
2024/01/11 11:35:10;;;;;;;19.73;8.85;;;0.40;99.90;;;;;;5086962;28;20024;-79
2024/01/11 11:37:39;;;;;;;18.73;9.13;;;0.40;99.90;;;;;;5065956;28;20024;-78
2024/01/11 11:40:07;;;;;;;20.02;9.05;;;0.30;99.90;;;;;;5064257;28;20123;-78
2024/01/11 11:42:37;;;;;;;19.33;9.15;;;0.40;99.90;;;;;;5069188;28;20069;-77
2024/01/11 11:45:03;;;;;;;20.38;9.32;;;0.40;99.90;;;;;;5086163;28;20016;-78
2024/01/11 11:47:35;;;;;;;18.55;8.68;;;0.40;99.90;;;;;;5087289;28;20053;-78
2024/01/11 11:50:07;;;;;;;21.10;9.25;;;0.40;99.90;;;;;;5086275;28;20024;-78
2024/01/11 11:52:35;;;;;;;21.60;9.35;;;0.40;99.90;;;;;;5075803;28;20044;-79
2024/01/11 11:55:02;;;;;;;20.27;9.88;;;0.40;99.90;;;;;;5083592;28;20028;-79
2024/01/11 11:57:28;;;;;;;20.98;9.43;;;0.40;99.90;;;;;;5086443;28;20042;-79
2024/01/11 12:00:05;;;;;;;21.52;9.88;;;0.40;99.90;;;;;;5085308;28;20389;-81
2024/01/11 12:02:32;;;;;;;24.52;10.25;;;0.40;99.90;;;;;;5078043;28;20177;-77
2024/01/11 12:04:57;;;;;;;21.70;9.90;;;0.50;99.90;;;;;;5083714;28;20158;-78
2024/01/11 12:07:23;;;;;;;20.92;9.30;;;0.50;99.90;;;;;;5086593;28;20545;-77
2024/01/11 12:09:50;;;;;;;27.33;10.90;;;0.50;99.90;;;;;;5085293;28;20028;-82
2024/01/11 12:12:17;;;;;;;21.83;9.57;;;0.50;99.90;;;;;;5086360;28;20190;-79
2024/01/11 12:14:43;;;;;;;23.90;9.77;;;0.60;99.90;;;;;;5086316;28;20039;-80
2024/01/11 12:17:09;;;;;;;20.15;9.55;;;0.60;99.90;;;;;;5068295;28;20016;-80
2024/01/11 12:19:35;;;;;;;23.15;9.88;;;0.60;99.90;;;;;;5086788;28;20043;-80
2024/01/11 12:22:01;;;;;;;22.10;9.65;;;0.60;99.90;;;;;;5086142;28;20104;-80
2024/01/11 12:24:27;;;;;;;20.67;9.38;;;0.70;99.90;;;;;;5068104;28;20032;-79
2024/01/11 12:26:57;;;;;;;22.67;9.32;;;0.70;99.90;;;;;;5086369;28;20532;-79